sensor_id;sensor_type;location;lat;lon;timestamp;temperature;humidity
43015;DHT22;28637;50.554;7.032;2024-02-21T00:03:40;7.50;99.90
43015;DHT22;28637;50.554;7.032;2024-02-21T00:08:41;7.50;99.90
43015;DHT22;28637;50.554;7.032;2024-02-21T00:13:42;7.50;99.90
43015;DHT22;28637;50.554;7.032;2024-02-21T00:18:43;7.50;99.90
43015;DHT22;28637;50.554;7.032;2024-02-21T00:23:47;7.50;99.90
43015;DHT22;28637;50.554;7.032;2024-02-21T00:28:47;7.50;99.90
43015;DHT22;28637;50.554;7.032;2024-02-21T00:33:48;7.50;99.90
43015;DHT22;28637;50.554;7.032;2024-02-21T00:38:48;7.50;99.90
43015;DHT22;28637;50.554;7.032;2024-02-21T00:43:49;7.60;99.90
43015;DHT22;28637;50.554;7.032;2024-02-21T00:48:50;7.60;99.90
43015;DHT22;28637;50.554;7.032;2024-02-21T00:53:51;7.60;99.90
43015;DHT22;28637;50.554;7.032;2024-02-21T00:58:51;7.60;99.90
43015;DHT22;28637;50.554;7.032;2024-02-21T01:03:52;7.50;99.90
43015;DHT22;28637;50.554;7.032;2024-02-21T01:08:56;7.60;99.90
43015;DHT22;28637;50.554;7.032;2024-02-21T01:13:57;7.60;99.90
43015;DHT22;28637;50.554;7.032;2024-02-21T01:18:58;7.70;99.90
43015;DHT22;28637;50.554;7.032;2024-02-21T01:23:58;7.70;99.90
43015;DHT22;28637;50.554;7.032;2024-02-21T01:28:59;7.80;99.90
43015;DHT22;28637;50.554;7.032;2024-02-21T01:34:00;7.80;99.90
43015;DHT22;28637;50.554;7.032;2024-02-21T01:39:01;7.80;99.90
43015;DHT22;28637;50.554;7.032;2024-02-21T01:44:01;7.80;99.90
43015;DHT22;28637;50.554;7.032;2024-02-21T01:49:02;7.90;99.90
43015;DHT22;28637;50.554;7.032;2024-02-21T01:54:03;7.90;99.90
43015;DHT22;28637;50.554;7.032;2024-02-21T01:59:04;8.00;99.90
43015;DHT22;28637;50.554;7.032;2024-02-21T02:04:05;7.90;99.90
43015;DHT22;28637;50.554;7.032;2024-02-21T02:09:06;7.80;99.90
43015;DHT22;28637;50.554;7.032;2024-02-21T02:14:07;7.70;99.90
43015;DHT22;28637;50.554;7.032;2024-02-21T02:19:08;7.60;99.90
43015;DHT22;28637;50.554;7.032;2024-02-21T02:24:13;7.60;99.90
43015;DHT22;28637;50.554;7.032;2024-02-21T02:29:14;7.70;99.90
43015;DHT22;28637;50.554;7.032;2024-02-21T02:34:15;7.70;99.90
43015;DHT22;28637;50.554;7.032;2024-02-21T02:39:16;7.80;99.90
43015;DHT22;28637;50.554;7.032;2024-02-21T02:44:16;7.80;99.90
43015;DHT22;28637;50.554;7.032;2024-02-21T02:49:17;7.90;99.90
43015;DHT22;28637;50.554;7.032;2024-02-21T02:54:18;7.90;99.90
43015;DHT22;28637;50.554;7.032;2024-02-21T02:59:18;7.80;99.90
43015;DHT22;28637;50.554;7.032;2024-02-21T03:04:19;7.60;99.90
43015;DHT22;28637;50.554;7.032;2024-02-21T03:09:20;7.60;99.90
43015;DHT22;28637;50.554;7.032;2024-02-21T03:14:20;7.70;99.90
43015;DHT22;28637;50.554;7.032;2024-02-21T03:19:21;7.70;99.90
43015;DHT22;28637;50.554;7.032;2024-02-21T03:24:22;7.70;99.90
43015;DHT22;28637;50.554;7.032;2024-02-21T03:29:23;7.70;99.90
43015;DHT22;28637;50.554;7.032;2024-02-21T03:34:24;7.60;99.90
43015;DHT22;28637;50.554;7.032;2024-02-21T03:39:25;7.60;99.90
43015;DHT22;28637;50.554;7.032;2024-02-21T03:44:25;7.60;99.90
43015;DHT22;28637;50.554;7.032;2024-02-21T03:49:26;7.60;99.90
43015;DHT22;28637;50.554;7.032;2024-02-21T03:54:27;7.60;99.90
43015;DHT22;28637;50.554;7.032;2024-02-21T03:59:28;7.50;99.90
43015;DHT22;28637;50.554;7.032;2024-02-21T04:04:28;7.50;99.90
43015;DHT22;28637;50.554;7.032;2024-02-21T04:09:29;7.40;99.90
43015;DHT22;28637;50.554;7.032;2024-02-21T04:14:30;7.40;99.90
43015;DHT22;28637;50.554;7.032;2024-02-21T04:19:30;7.50;99.90
43015;DHT22;28637;50.554;7.032;2024-02-21T04:24:31;7.60;99.90
43015;DHT22;28637;50.554;7.032;2024-02-21T04:29:32;7.60;99.90
43015;DHT22;28637;50.554;7.032;2024-02-21T04:34:33;7.70;99.90
43015;DHT22;28637;50.554;7.032;2024-02-21T04:39:34;7.70;99.90
43015;DHT22;28637;50.554;7.032;2024-02-21T04:44:35;7.70;99.90
43015;DHT22;28637;50.554;7.032;2024-02-21T04:49:35;7.70;99.90
43015;DHT22;28637;50.554;7.032;2024-02-21T04:54:36;7.70;99.90
43015;DHT22;28637;50.554;7.032;2024-02-21T04:59:37;7.50;99.90
43015;DHT22;28637;50.554;7.032;2024-02-21T05:04:38;7.50;99.90
43015;DHT22;28637;50.554;7.032;2024-02-21T05:09:38;7.50;99.90
43015;DHT22;28637;50.554;7.032;2024-02-21T05:14:39;7.50;99.90
43015;DHT22;28637;50.554;7.032;2024-02-21T05:19:40;7.60;99.90
43015;DHT22;28637;50.554;7.032;2024-02-21T05:24:40;7.60;99.90
43015;DHT22;28637;50.554;7.032;2024-02-21T05:29:41;7.60;99.90
43015;DHT22;28637;50.554;7.032;2024-02-21T05:34:42;7.60;99.90
43015;DHT22;28637;50.554;7.032;2024-02-21T05:39:43;7.60;99.90
43015;DHT22;28637;50.554;7.032;2024-02-21T05:44:44;7.50;99.90
43015;DHT22;28637;50.554;7.032;2024-02-21T05:49:45;7.50;99.90
43015;DHT22;28637;50.554;7.032;2024-02-21T05:54:45;7.60;99.90
43015;DHT22;28637;50.554;7.032;2024-02-21T05:59:46;7.70;99.90
43015;DHT22;28637;50.554;7.032;2024-02-21T06:04:47;7.70;99.90
43015;DHT22;28637;50.554;7.032;2024-02-21T06:09:47;7.60;99.90
43015;DHT22;28637;50.554;7.032;2024-02-21T06:14:48;7.60;99.90
43015;DHT22;28637;50.554;7.032;2024-02-21T06:19:49;7.60;99.90
43015;DHT22;28637;50.554;7.032;2024-02-21T06:24:49;7.60;99.90
43015;DHT22;28637;50.554;7.032;2024-02-21T06:29:50;7.50;99.90
43015;DHT22;28637;50.554;7.032;2024-02-21T06:34:51;7.70;99.90
43015;DHT22;28637;50.554;7.032;2024-02-21T06:39:52;7.70;99.90
43015;DHT22;28637;50.554;7.032;2024-02-21T06:44:52;7.70;99.90
43015;DHT22;28637;50.554;7.032;2024-02-21T06:49:53;7.70;99.90
43015;DHT22;28637;50.554;7.032;2024-02-21T06:54:54;7.60;99.90
43015;DHT22;28637;50.554;7.032;2024-02-21T06:59:54;7.60;99.90
43015;DHT22;28637;50.554;7.032;2024-02-21T07:04:55;7.60;99.90
43015;DHT22;28637;50.554;7.032;2024-02-21T07:09:56;7.70;99.90
43015;DHT22;28637;50.554;7.032;2024-02-21T07:14:57;7.70;99.90
43015;DHT22;28637;50.554;7.032;2024-02-21T07:19:57;7.70;99.90
43015;DHT22;28637;50.554;7.032;2024-02-21T07:24:59;7.70;99.90
43015;DHT22;28637;50.554;7.032;2024-02-21T07:30:00;7.60;99.90
43015;DHT22;28637;50.554;7.032;2024-02-21T07:35:00;7.60;99.90
43015;DHT22;28637;50.554;7.032;2024-02-21T07:40:01;7.60;99.90
43015;DHT22;28637;50.554;7.032;2024-02-21T07:45:02;7.70;99.90
43015;DHT22;28637;50.554;7.032;2024-02-21T07:50:04;7.80;99.90
43015;DHT22;28637;50.554;7.032;2024-02-21T07:55:05;7.80;99.90
43015;DHT22;28637;50.554;7.032;2024-02-21T08:00:06;7.80;99.90
43015;DHT22;28637;50.554;7.032;2024-02-21T08:05:10;7.60;99.90
43015;DHT22;28637;50.554;7.032;2024-02-21T08:10:12;7.60;99.90
43015;DHT22;28637;50.554;7.032;2024-02-21T08:15:13;7.60;99.90
43015;DHT22;28637;50.554;7.032;2024-02-21T08:20:14;7.70;99.90
43015;DHT22;28637;50.554;7.032;2024-02-21T08:25:15;7.70;99.90
43015;DHT22;28637;50.554;7.032;2024-02-21T08:30:15;7.70;99.90
43015;DHT22;28637;50.554;7.032;2024-02-21T08:35:16;7.80;99.90
43015;DHT22;28637;50.554;7.032;2024-02-21T08:40:19;7.80;99.90
43015;DHT22;28637;50.554;7.032;2024-02-21T08:45:21;8.00;99.90
43015;DHT22;28637;50.554;7.032;2024-02-21T08:50:22;8.10;99.90
43015;DHT22;28637;50.554;7.032;2024-02-21T08:55:23;8.20;99.90
43015;DHT22;28637;50.554;7.032;2024-02-21T09:00:24;8.40;99.90
43015;DHT22;28637;50.554;7.032;2024-02-21T09:05:27;8.40;99.90
43015;DHT22;28637;50.554;7.032;2024-02-21T09:10:28;8.30;99.90
43015;DHT22;28637;50.554;7.032;2024-02-21T09:15:28;8.40;99.90
43015;DHT22;28637;50.554;7.032;2024-02-21T09:20:29;8.50;99.90
43015;DHT22;28637;50.554;7.032;2024-02-21T09:25:30;8.70;99.90
43015;DHT22;28637;50.554;7.032;2024-02-21T09:30:32;8.70;99.90
43015;DHT22;28637;50.554;7.032;2024-02-21T09:35:33;8.80;99.90
43015;DHT22;28637;50.554;7.032;2024-02-21T09:40:34;8.90;99.90
43015;DHT22;28637;50.554;7.032;2024-02-21T09:45:40;9.00;99.90
43015;DHT22;28637;50.554;7.032;2024-02-21T09:50:43;9.10;99.90
43015;DHT22;28637;50.554;7.032;2024-02-21T09:55:44;9.00;99.90
43015;DHT22;28637;50.554;7.032;2024-02-21T10:00:46;9.10;99.90
43015;DHT22;28637;50.554;7.032;2024-02-21T10:05:49;9.20;99.90
43015;DHT22;28637;50.554;7.032;2024-02-21T10:10:51;9.30;99.90
43015;DHT22;28637;50.554;7.032;2024-02-21T10:16:07;9.40;99.90
43015;DHT22;28637;50.554;7.032;2024-02-21T10:21:08;9.40;99.90
43015;DHT22;28637;50.554;7.032;2024-02-21T10:26:09;9.30;99.90
43015;DHT22;28637;50.554;7.032;2024-02-21T10:31:20;9.40;99.90
43015;DHT22;28637;50.554;7.032;2024-02-21T10:36:21;9.50;99.90
43015;DHT22;28637;50.554;7.032;2024-02-21T10:41:23;9.60;99.90
43015;DHT22;28637;50.554;7.032;2024-02-21T10:46:24;9.50;99.90
43015;DHT22;28637;50.554;7.032;2024-02-21T10:51:33;9.50;99.90
43015;DHT22;28637;50.554;7.032;2024-02-21T10:56:35;9.40;99.90
43015;DHT22;28637;50.554;7.032;2024-02-21T11:01:38;9.40;99.90
43015;DHT22;28637;50.554;7.032;2024-02-21T11:06:41;9.40;99.90
43015;DHT22;28637;50.554;7.032;2024-02-21T11:11:43;9.40;99.90
43015;DHT22;28637;50.554;7.032;2024-02-21T11:16:44;9.30;99.90
43015;DHT22;28637;50.554;7.032;2024-02-21T11:21:45;9.30;99.90
43015;DHT22;28637;50.554;7.032;2024-02-21T11:26:49;9.40;99.90
43015;DHT22;28637;50.554;7.032;2024-02-21T11:31:49;9.50;99.90
43015;DHT22;28637;50.554;7.032;2024-02-21T11:36:52;9.50;99.90
43015;DHT22;28637;50.554;7.032;2024-02-21T11:42:04;9.60;99.90
43015;DHT22;28637;50.554;7.032;2024-02-21T11:47:09;9.60;99.90
43015;DHT22;28637;50.554;7.032;2024-02-21T11:52:09;9.60;99.90
43015;DHT22;28637;50.554;7.032;2024-02-21T11:57:10;9.50;99.90
43015;DHT22;28637;50.554;7.032;2024-02-21T12:02:12;9.50;99.90
43015;DHT22;28637;50.554;7.032;2024-02-21T12:07:14;9.60;99.90
43015;DHT22;28637;50.554;7.032;2024-02-21T12:12:19;9.60;99.90
43015;DHT22;28637;50.554;7.032;2024-02-21T12:17:20;9.60;99.90
43015;DHT22;28637;50.554;7.032;2024-02-21T12:22:21;9.60;99.90
43015;DHT22;28637;50.554;7.032;2024-02-21T12:27:21;9.60;99.90
43015;DHT22;28637;50.554;7.032;2024-02-21T12:32:24;9.60;99.90
43015;DHT22;28637;50.554;7.032;2024-02-21T12:37:25;9.50;99.90
43015;DHT22;28637;50.554;7.032;2024-02-21T12:42:26;9.50;99.90
43015;DHT22;28637;50.554;7.032;2024-02-21T12:47:27;9.50;99.90
43015;DHT22;28637;50.554;7.032;2024-02-21T12:52:27;9.50;99.90
43015;DHT22;28637;50.554;7.032;2024-02-21T12:57:28;9.50;99.90
43015;DHT22;28637;50.554;7.032;2024-02-21T13:02:29;9.60;99.90
43015;DHT22;28637;50.554;7.032;2024-02-21T13:07:30;9.70;99.90
43015;DHT22;28637;50.554;7.032;2024-02-21T13:12:32;9.80;99.90
43015;DHT22;28637;50.554;7.032;2024-02-21T13:17:33;10.00;99.90
43015;DHT22;28637;50.554;7.032;2024-02-21T13:22:34;10.10;99.90
43015;DHT22;28637;50.554;7.032;2024-02-21T13:27:35;10.20;99.90
43015;DHT22;28637;50.554;7.032;2024-02-21T13:32:36;10.70;99.90
43015;DHT22;28637;50.554;7.032;2024-02-21T13:37:38;10.80;99.90
43015;DHT22;28637;50.554;7.032;2024-02-21T13:42:39;10.70;99.90
43015;DHT22;28637;50.554;7.032;2024-02-21T13:47:40;10.70;99.90
43015;DHT22;28637;50.554;7.032;2024-02-21T13:52:41;11.00;99.90
43015;DHT22;28637;50.554;7.032;2024-02-21T13:57:41;10.80;99.90
43015;DHT22;28637;50.554;7.032;2024-02-21T14:02:42;10.70;99.90
43015;DHT22;28637;50.554;7.032;2024-02-21T14:07:43;10.60;99.90
43015;DHT22;28637;50.554;7.032;2024-02-21T14:12:43;10.50;99.90
43015;DHT22;28637;50.554;7.032;2024-02-21T14:17:48;10.40;99.90
43015;DHT22;28637;50.554;7.032;2024-02-21T14:22:59;10.40;99.90
43015;DHT22;28637;50.554;7.032;2024-02-21T14:28:11;10.30;99.90
43015;DHT22;28637;50.554;7.032;2024-02-21T14:33:28;10.20;99.90
43015;DHT22;28637;50.554;7.032;2024-02-21T14:39:09;10.20;99.90
43015;DHT22;28637;50.554;7.032;2024-02-21T14:44:54;10.10;99.90
43015;DHT22;28637;50.554;7.032;2024-02-21T14:50:07;10.10;99.90
43015;DHT22;28637;50.554;7.032;2024-02-21T14:55:09;9.90;99.90
43015;DHT22;28637;50.554;7.032;2024-02-21T15:00:12;9.90;99.90
43015;DHT22;28637;50.554;7.032;2024-02-21T15:05:16;9.90;99.90
43015;DHT22;28637;50.554;7.032;2024-02-21T15:10:17;9.80;99.90
43015;DHT22;28637;50.554;7.032;2024-02-21T15:15:20;9.70;99.90
43015;DHT22;28637;50.554;7.032;2024-02-21T15:20:21;9.70;99.90
43015;DHT22;28637;50.554;7.032;2024-02-21T15:25:22;9.70;99.90
43015;DHT22;28637;50.554;7.032;2024-02-21T15:30:22;9.70;99.90
43015;DHT22;28637;50.554;7.032;2024-02-21T15:35:23;9.60;99.90
43015;DHT22;28637;50.554;7.032;2024-02-21T15:40:25;9.60;99.90
43015;DHT22;28637;50.554;7.032;2024-02-21T15:45:26;9.50;99.90
43015;DHT22;28637;50.554;7.032;2024-02-21T15:50:27;9.40;99.90
43015;DHT22;28637;50.554;7.032;2024-02-21T15:55:28;9.40;99.90
43015;DHT22;28637;50.554;7.032;2024-02-21T16:00:29;9.40;99.90
43015;DHT22;28637;50.554;7.032;2024-02-21T16:05:30;9.30;99.90
43015;DHT22;28637;50.554;7.032;2024-02-21T16:10:31;9.30;99.90
43015;DHT22;28637;50.554;7.032;2024-02-21T16:15:32;9.10;99.90
43015;DHT22;28637;50.554;7.032;2024-02-21T16:20:33;9.20;99.90
43015;DHT22;28637;50.554;7.032;2024-02-21T16:25:33;9.20;99.90
43015;DHT22;28637;50.554;7.032;2024-02-21T16:30:35;9.10;99.90
43015;DHT22;28637;50.554;7.032;2024-02-21T16:35:36;9.10;99.90
43015;DHT22;28637;50.554;7.032;2024-02-21T16:40:40;9.10;99.90
43015;DHT22;28637;50.554;7.032;2024-02-21T16:45:41;9.10;99.90
43015;DHT22;28637;50.554;7.032;2024-02-21T16:50:42;9.20;99.90
43015;DHT22;28637;50.554;7.032;2024-02-21T16:55:43;9.20;99.90
43015;DHT22;28637;50.554;7.032;2024-02-21T17:00:44;9.20;99.90
43015;DHT22;28637;50.554;7.032;2024-02-21T17:05:48;9.20;99.90
43015;DHT22;28637;50.554;7.032;2024-02-21T17:10:49;9.20;99.90
43015;DHT22;28637;50.554;7.032;2024-02-21T17:15:51;9.20;99.90
43015;DHT22;28637;50.554;7.032;2024-02-21T17:20:51;9.20;99.90
43015;DHT22;28637;50.554;7.032;2024-02-21T17:25:52;9.20;99.90
43015;DHT22;28637;50.554;7.032;2024-02-21T17:30:53;9.20;99.90
43015;DHT22;28637;50.554;7.032;2024-02-21T17:35:54;9.30;99.90
43015;DHT22;28637;50.554;7.032;2024-02-21T17:40:55;9.30;99.90
43015;DHT22;28637;50.554;7.032;2024-02-21T17:45:59;9.30;99.90
43015;DHT22;28637;50.554;7.032;2024-02-21T17:51:00;9.50;99.90
43015;DHT22;28637;50.554;7.032;2024-02-21T17:56:01;9.50;99.90
43015;DHT22;28637;50.554;7.032;2024-02-21T18:01:01;9.40;99.90
43015;DHT22;28637;50.554;7.032;2024-02-21T18:06:02;9.30;99.90
43015;DHT22;28637;50.554;7.032;2024-02-21T18:11:03;9.30;99.90
43015;DHT22;28637;50.554;7.032;2024-02-21T18:16:05;9.20;99.90
43015;DHT22;28637;50.554;7.032;2024-02-21T18:21:07;9.20;99.90
43015;DHT22;28637;50.554;7.032;2024-02-21T18:26:07;9.20;99.90
43015;DHT22;28637;50.554;7.032;2024-02-21T18:31:08;9.20;99.90
43015;DHT22;28637;50.554;7.032;2024-02-21T18:36:08;9.20;99.90
43015;DHT22;28637;50.554;7.032;2024-02-21T18:41:09;9.20;99.90
43015;DHT22;28637;50.554;7.032;2024-02-21T18:46:10;9.10;99.90
43015;DHT22;28637;50.554;7.032;2024-02-21T18:51:14;9.10;99.90
43015;DHT22;28637;50.554;7.032;2024-02-21T18:56:15;9.10;99.90
43015;DHT22;28637;50.554;7.032;2024-02-21T19:01:16;9.10;99.90
43015;DHT22;28637;50.554;7.032;2024-02-21T19:06:39;9.10;99.90
43015;DHT22;28637;50.554;7.032;2024-02-21T19:12:03;9.00;99.90
43015;DHT22;28637;50.554;7.032;2024-02-21T19:17:05;8.90;99.90
43015;DHT22;28637;50.554;7.032;2024-02-21T19:22:06;8.90;99.90
43015;DHT22;28637;50.554;7.032;2024-02-21T19:27:07;8.90;99.90
43015;DHT22;28637;50.554;7.032;2024-02-21T19:32:31;8.80;99.90
43015;DHT22;28637;50.554;7.032;2024-02-21T19:37:56;8.60;99.90
43015;DHT22;28637;50.554;7.032;2024-02-21T19:43:04;8.60;99.90
43015;DHT22;28637;50.554;7.032;2024-02-21T19:48:07;8.60;99.90
43015;DHT22;28637;50.554;7.032;2024-02-21T19:59:02;8.50;99.90
43015;DHT22;28637;50.554;7.032;2024-02-21T20:04:05;8.40;99.90
43015;DHT22;28637;50.554;7.032;2024-02-21T20:09:08;8.50;99.90
43015;DHT22;28637;50.554;7.032;2024-02-21T20:14:09;8.40;99.90
43015;DHT22;28637;50.554;7.032;2024-02-21T20:19:22;8.40;99.90
43015;DHT22;28637;50.554;7.032;2024-02-21T20:24:33;8.40;99.90
43015;DHT22;28637;50.554;7.032;2024-02-21T20:29:34;8.40;99.90
43015;DHT22;28637;50.554;7.032;2024-02-21T20:34:35;8.30;99.90
43015;DHT22;28637;50.554;7.032;2024-02-21T20:39:36;8.30;99.90
43015;DHT22;28637;50.554;7.032;2024-02-21T20:44:38;8.40;99.90
43015;DHT22;28637;50.554;7.032;2024-02-21T20:49:38;8.30;99.90
43015;DHT22;28637;50.554;7.032;2024-02-21T20:54:39;8.30;99.90
43015;DHT22;28637;50.554;7.032;2024-02-21T20:59:42;8.30;99.90
43015;DHT22;28637;50.554;7.032;2024-02-21T21:04:43;8.40;99.90
43015;DHT22;28637;50.554;7.032;2024-02-21T21:09:44;8.40;99.90
43015;DHT22;28637;50.554;7.032;2024-02-21T21:14:44;8.30;99.90
43015;DHT22;28637;50.554;7.032;2024-02-21T21:19:45;8.30;99.90
43015;DHT22;28637;50.554;7.032;2024-02-21T21:24:46;8.40;99.90
43015;DHT22;28637;50.554;7.032;2024-02-21T21:29:47;8.30;99.90
43015;DHT22;28637;50.554;7.032;2024-02-21T21:34:53;8.30;99.90
43015;DHT22;28637;50.554;7.032;2024-02-21T21:39:54;8.30;99.90
43015;DHT22;28637;50.554;7.032;2024-02-21T21:44:56;8.20;99.90
43015;DHT22;28637;50.554;7.032;2024-02-21T21:49:56;8.20;99.90
43015;DHT22;28637;50.554;7.032;2024-02-21T21:54:57;8.20;99.90
43015;DHT22;28637;50.554;7.032;2024-02-21T21:59:58;8.20;99.90
43015;DHT22;28637;50.554;7.032;2024-02-21T22:05:00;8.10;99.90
43015;DHT22;28637;50.554;7.032;2024-02-21T22:10:01;8.10;99.90
43015;DHT22;28637;50.554;7.032;2024-02-21T22:15:03;8.00;99.90
43015;DHT22;28637;50.554;7.032;2024-02-21T22:20:05;8.10;99.90
43015;DHT22;28637;50.554;7.032;2024-02-21T22:25:13;8.10;99.90
43015;DHT22;28637;50.554;7.032;2024-02-21T22:30:13;8.20;99.90
43015;DHT22;28637;50.554;7.032;2024-02-21T22:35:14;8.20;99.90
43015;DHT22;28637;50.554;7.032;2024-02-21T22:40:15;8.20;99.90
43015;DHT22;28637;50.554;7.032;2024-02-21T22:45:17;8.20;99.90
43015;DHT22;28637;50.554;7.032;2024-02-21T22:50:17;8.30;99.90
43015;DHT22;28637;50.554;7.032;2024-02-21T22:55:18;8.30;99.90
43015;DHT22;28637;50.554;7.032;2024-02-21T23:00:19;8.30;99.90
43015;DHT22;28637;50.554;7.032;2024-02-21T23:05:19;8.30;99.90
43015;DHT22;28637;50.554;7.032;2024-02-21T23:10:20;8.40;99.90
43015;DHT22;28637;50.554;7.032;2024-02-21T23:15:25;8.40;99.90
43015;DHT22;28637;50.554;7.032;2024-02-21T23:20:26;8.50;99.90
43015;DHT22;28637;50.554;7.032;2024-02-21T23:25:28;8.40;99.90
43015;DHT22;28637;50.554;7.032;2024-02-21T23:30:28;8.50;99.90
43015;DHT22;28637;50.554;7.032;2024-02-21T23:35:29;8.50;99.90
43015;DHT22;28637;50.554;7.032;2024-02-21T23:40:30;8.60;99.90
43015;DHT22;28637;50.554;7.032;2024-02-21T23:45:30;8.50;99.90
43015;DHT22;28637;50.554;7.032;2024-02-21T23:50:31;8.60;99.90
43015;DHT22;28637;50.554;7.032;2024-02-21T23:55:32;8.60;99.90
